Time,TemperatureF,DewpointF,PressureIn,WindDirection,WindDirectionDegrees,WindSpeedMPH,WindSpeedGustMPH,Humidity,HourlyPrecipIn,Conditions,Clouds,dailyrainin,SoftwareType,DateUTC
2013-02-08 00:12:00,40.9,40.0,29.94,SW,214,1.0,8.0,97,0.00,,,0.00,weatherlink.com 1.10,2013-02-08 05:12:00,
2013-02-08 00:27:00,40.8,40.0,29.94,North,5,1.0,5.0,97,0.00,,,0.00,weatherlink.com 1.10,2013-02-08 05:27:00,
2013-02-08 00:42:00,41.0,40.0,29.93,South,184,0.0,7.0,97,0.00,,,0.00,weatherlink.com 1.10,2013-02-08 05:42:00,
2013-02-08 00:57:00,41.0,40.0,29.95,ESE,106,1.0,5.0,97,0.00,,,0.00,weatherlink.com 1.10,2013-02-08 05:57:00,
2013-02-08 01:12:00,41.0,40.0,29.93,ESE,106,1.0,8.0,97,0.00,,,0.00,weatherlink.com 1.10,2013-02-08 06:12:00,
2013-02-08 01:27:00,41.0,40.0,29.92,West,281,1.0,8.0,97,0.00,,,0.00,weatherlink.com 1.10,2013-02-08 06:27:00,
2013-02-08 01:42:00,41.1,40.0,29.91,ENE,58,1.0,3.0,97,0.00,,,0.00,weatherlink.com 1.10,2013-02-08 06:42:00,
2013-02-08 01:57:00,40.9,40.0,29.90,SE,132,1.0,8.0,96,0.00,,,0.00,weatherlink.com 1.10,2013-02-08 06:57:00,
2013-02-08 02:12:00,40.8,40.0,29.91,SSE,157,2.0,7.0,97,0.00,,,0.00,weatherlink.com 1.10,2013-02-08 07:12:00,
2013-02-08 02:27:00,40.6,40.0,29.89,NE,41,0.0,6.0,97,0.00,,,0.00,weatherlink.com 1.10,2013-02-08 07:27:00,
2013-02-08 02:42:00,40.5,40.0,29.89,East,95,1.0,3.0,97,0.00,,,0.00,weatherlink.com 1.10,2013-02-08 07:42:00,
2013-02-08 02:57:00,40.4,40.0,29.88,SW,232,0.0,4.0,97,0.00,,,0.00,weatherlink.com 1.10,2013-02-08 07:57:00,
2013-02-08 03:12:00,40.4,40.0,29.88,ESE,117,1.0,3.0,97,0.00,,,0.00,weatherlink.com 1.10,2013-02-08 08:12:00,
2013-02-08 03:27:00,40.4,40.0,29.88,SSE,162,0.0,7.0,97,0.00,,,0.00,weatherlink.com 1.10,2013-02-08 08:27:00,
2013-02-08 03:42:00,40.4,40.0,29.88,ESE,121,1.0,3.0,97,0.00,,,0.00,weatherlink.com 1.10,2013-02-08 08:42:00,
2013-02-08 03:57:00,40.3,40.0,29.89,WSW,257,2.0,6.0,97,0.00,,,0.00,weatherlink.com 1.10,2013-02-08 08:57:00,
2013-02-08 04:12:00,40.2,39.0,29.90,West,263,3.0,10.0,97,0.00,,,0.00,weatherlink.com 1.10,2013-02-08 09:12:00,
2013-02-08 04:27:00,40.2,39.0,29.90,West,265,2.0,7.0,97,0.00,,,0.00,weatherlink.com 1.10,2013-02-08 09:27:00,
2013-02-08 04:42:00,40.2,39.0,29.90,WSW,237,1.0,4.0,97,0.00,,,0.00,weatherlink.com 1.10,2013-02-08 09:42:00,
2013-02-08 04:58:00,39.9,39.0,29.90,West,259,3.0,7.0,96,0.00,,,0.00,weatherlink.com 1.10,2013-02-08 09:58:00,
2013-02-08 05:13:00,39.8,39.0,29.89,SW,217,0.0,6.0,96,0.00,,,0.00,weatherlink.com 1.10,2013-02-08 10:13:00,
2013-02-08 05:28:00,39.5,39.0,29.89,WSW,240,0.0,6.0,96,0.00,,,0.00,weatherlink.com 1.10,2013-02-08 10:28:00,
2013-02-08 05:43:00,39.4,38.0,29.89,WSW,249,1.0,5.0,96,0.00,,,0.00,weatherlink.com 1.10,2013-02-08 10:43:00,
2013-02-08 05:58:00,39.2,38.0,29.89,SSW,207,2.0,6.0,96,0.00,,,0.00,weatherlink.com 1.10,2013-02-08 10:58:00,
2013-02-08 06:13:00,39.1,38.0,29.90,West,271,1.0,4.0,96,0.00,,,0.00,weatherlink.com 1.10,2013-02-08 11:13:00,
2013-02-08 06:28:00,39.0,38.0,29.90,SSE,150,0.0,6.0,96,0.00,,,0.00,weatherlink.com 1.10,2013-02-08 11:28:00,
2013-02-08 06:43:00,38.9,38.0,29.90,NW,323,0.0,7.0,96,0.00,,,0.00,weatherlink.com 1.10,2013-02-08 11:43:00,
2013-02-08 06:58:00,38.8,38.0,29.90,SSE,163,1.0,4.0,96,0.00,,,0.00,weatherlink.com 1.10,2013-02-08 11:58:00,
2013-02-08 07:13:00,38.7,37.0,29.91,West,264,3.0,8.0,95,0.00,,,0.00,weatherlink.com 1.10,2013-02-08 12:13:00,
2013-02-08 07:28:00,38.8,38.0,29.91,SW,219,1.0,3.0,96,0.00,,,0.00,weatherlink.com 1.10,2013-02-08 12:28:00,
2013-02-08 07:43:00,38.9,38.0,29.92,WNW,290,1.0,3.0,96,0.00,,,0.00,weatherlink.com 1.10,2013-02-08 12:43:00,
2013-02-08 07:58:00,39.0,38.0,29.91,SE,138,0.0,4.0,96,0.00,,,0.00,weatherlink.com 1.10,2013-02-08 12:58:00,
2013-02-08 08:13:00,39.2,38.0,29.92,WNW,298,1.0,4.0,95,0.00,,,0.00,weatherlink.com 1.10,2013-02-08 13:13:00,
2013-02-08 08:28:00,39.4,38.0,29.94,ESE,105,2.0,3.0,95,0.00,,,0.00,weatherlink.com 1.10,2013-02-08 13:28:00,
2013-02-08 08:43:00,39.7,38.0,29.94,WSW,239,0.0,3.0,95,0.00,,,0.00,weatherlink.com 1.10,2013-02-08 13:43:00,
2013-02-08 08:58:00,40.1,39.0,29.93,West,270,0.0,4.0,95,0.00,,,0.00,weatherlink.com 1.10,2013-02-08 13:58:00,
2013-02-08 09:13:00,40.5,39.0,29.94,SW,231,1.0,5.0,94,0.00,,,0.00,weatherlink.com 1.10,2013-02-08 14:13:00,
2013-02-08 09:28:00,40.9,39.0,29.95,West,263,1.0,3.0,94,0.00,,,0.00,weatherlink.com 1.10,2013-02-08 14:28:00,
2013-02-08 09:43:00,41.4,40.0,29.94,WNW,287,1.0,2.0,94,0.00,,,0.00,weatherlink.com 1.10,2013-02-08 14:43:00,
2013-02-08 09:58:00,41.7,40.0,29.95,West,264,1.0,5.0,92,0.00,,,0.00,weatherlink.com 1.10,2013-02-08 14:58:00,
2013-02-08 10:13:00,42.2,40.0,29.95,WSW,257,0.0,6.0,91,0.00,,,0.00,weatherlink.com 1.10,2013-02-08 15:13:00,
2013-02-08 10:28:00,43.8,41.0,29.95,SW,226,1.0,5.0,91,0.00,,,0.00,weatherlink.com 1.10,2013-02-08 15:28:00,
2013-02-08 10:43:00,45.0,42.0,29.95,South,169,1.0,5.0,90,0.00,,,0.00,weatherlink.com 1.10,2013-02-08 15:43:00,
2013-02-08 10:58:00,46.4,43.0,29.94,NW,316,0.0,4.0,86,0.00,,,0.00,weatherlink.com 1.10,2013-02-08 15:58:00,
2013-02-08 11:13:00,47.8,44.0,29.93,WNW,293,3.0,5.0,85,0.00,,,0.00,weatherlink.com 1.10,2013-02-08 16:13:00,
2013-02-08 11:28:00,49.3,45.0,29.92,SW,219,4.0,4.0,84,0.00,,,0.00,weatherlink.com 1.10,2013-02-08 16:28:00,
2013-02-08 11:43:00,50.5,45.0,29.93,NNW,341,1.0,6.0,82,0.00,,,0.00,weatherlink.com 1.10,2013-02-08 16:43:00,
2013-02-08 11:58:00,52.0,46.0,29.92,WSW,254,2.0,4.0,80,0.00,,,0.00,weatherlink.com 1.10,2013-02-08 16:58:00,
2013-02-08 12:14:00,52.6,45.0,29.91,NNW,329,2.0,7.0,76,0.00,,,0.00,weatherlink.com 1.10,2013-02-08 17:14:00,
2013-02-08 12:29:00,53.7,47.0,29.90,ESE,102,2.0,6.0,77,0.00,,,0.00,weatherlink.com 1.10,2013-02-08 17:29:00,
2013-02-08 12:44:00,55.3,47.0,29.90,NW,317,5.0,8.0,73,0.00,,,0.00,weatherlink.com 1.10,2013-02-08 17:44:00,
2013-02-08 12:59:00,55.6,47.0,29.89,WSW,255,3.0,8.0,74,0.00,,,0.00,weatherlink.com 1.10,2013-02-08 17:59:00,
2013-02-08 13:14:00,56.6,48.0,29.89,SW,234,8.0,8.0,72,0.00,,,0.00,weatherlink.com 1.10,2013-02-08 18:14:00,
2013-02-08 13:29:00,56.9,48.0,29.88,WNW,284,4.0,9.0,71,0.00,,,0.00,weatherlink.com 1.10,2013-02-08 18:29:00,
2013-02-08 13:44:00,57.8,48.0,29.88,WNW,282,1.0,9.0,71,0.00,,,0.00,weatherlink.com 1.10,2013-02-08 18:44:00,
2013-02-08 13:59:00,58.1,48.0,29.87,North,11,4.0,13.0,70,0.00,,,0.00,weatherlink.com 1.10,2013-02-08 18:59:00,
2013-02-08 14:14:00,58.9,49.0,29.87,West,273,4.0,7.0,69,0.00,,,0.00,weatherlink.com 1.10,2013-02-08 19:14:00,
2013-02-08 14:29:00,59.7,49.0,29.86,SW,221,4.0,6.0,68,0.00,,,0.00,weatherlink.com 1.10,2013-02-08 19:29:00,
2013-02-08 14:44:00,58.8,48.0,29.86,WSW,254,5.0,10.0,67,0.00,,,0.00,weatherlink.com 1.10,2013-02-08 19:44:00,
2013-02-08 14:59:00,59.6,49.0,29.86,SW,231,2.0,9.0,67,0.00,,,0.00,weatherlink.com 1.10,2013-02-08 19:59:00,
2013-02-08 15:14:00,59.6,49.0,29.86,West,268,1.0,8.0,67,0.00,,,0.00,weatherlink.com 1.10,2013-02-08 20:14:00,
2013-02-08 15:29:00,59.4,48.0,29.86,WNW,296,3.0,9.0,66,0.00,,,0.00,weatherlink.com 1.10,2013-02-08 20:29:00,
2013-02-08 15:44:00,59.4,48.0,29.87,WSW,254,3.0,10.0,66,0.00,,,0.00,weatherlink.com 1.10,2013-02-08 20:44:00,
2013-02-08 15:59:00,58.9,48.0,29.87,NW,311,3.0,8.0,67,0.00,,,0.00,weatherlink.com 1.10,2013-02-08 20:59:00,
2013-02-08 16:14:00,58.6,48.0,29.87,WSW,255,1.0,7.0,68,0.00,,,0.00,weatherlink.com 1.10,2013-02-08 21:14:00,
2013-02-08 16:29:00,58.3,48.0,29.88,NW,316,2.0,9.0,69,0.00,,,0.00,weatherlink.com 1.10,2013-02-08 21:29:00,
2013-02-08 16:44:00,58.2,48.0,29.89,WNW,303,2.0,7.0,69,0.00,,,0.00,weatherlink.com 1.10,2013-02-08 21:44:00,
2013-02-08 16:59:00,57.9,49.0,29.89,WNW,292,5.0,7.0,71,0.00,,,0.00,weatherlink.com 1.10,2013-02-08 21:59:00,
2013-02-08 17:14:00,57.5,46.0,29.90,East,88,1.0,9.0,66,0.00,,,0.00,weatherlink.com 1.10,2013-02-08 22:14:00,
2013-02-08 17:29:00,57.1,45.0,29.91,WNW,300,0.0,6.0,64,0.00,,,0.00,weatherlink.com 1.10,2013-02-08 22:29:00,
2013-02-08 17:44:00,56.3,41.0,29.91,WNW,290,2.0,8.0,58,0.00,,,0.00,weatherlink.com 1.10,2013-02-08 22:44:00,
2013-02-08 17:59:00,55.3,40.0,29.93,WSW,252,1.0,5.0,56,0.00,,,0.00,weatherlink.com 1.10,2013-02-08 22:59:00,
2013-02-08 18:14:00,54.4,39.0,29.93,WSW,248,0.0,8.0,57,0.00,,,0.00,weatherlink.com 1.10,2013-02-08 23:14:00,
2013-02-08 18:29:00,53.8,40.0,29.94,SSW,201,0.0,4.0,59,0.00,,,0.00,weatherlink.com 1.10,2013-02-08 23:29:00,
2013-02-08 18:44:00,52.5,38.0,29.95,WSW,241,1.0,6.0,59,0.00,,,0.00,weatherlink.com 1.10,2013-02-08 23:44:00,
2013-02-08 18:59:00,52.3,37.0,29.95,WSW,240,0.0,3.0,57,0.00,,,0.00,weatherlink.com 1.10,2013-02-08 23:59:00,
2013-02-08 19:14:00,52.4,36.0,29.96,WSW,248,0.0,4.0,55,0.00,,,0.00,weatherlink.com 1.10,2013-02-09 00:14:00,
2013-02-08 19:29:00,52.4,36.0,29.96,WSW,240,1.0,4.0,55,0.00,,,0.00,weatherlink.com 1.10,2013-02-09 00:29:00,
2013-02-08 19:44:00,51.8,36.0,29.97,SW,221,0.0,3.0,56,0.00,,,0.00,weatherlink.com 1.10,2013-02-09 00:44:00,
2013-02-08 19:59:00,50.3,36.0,29.97,WSW,246,0.0,3.0,59,0.00,,,0.00,weatherlink.com 1.10,2013-02-09 00:59:00,
2013-02-08 20:14:00,50.0,36.0,29.98,WNW,302,0.0,3.0,60,0.00,,,0.00,weatherlink.com 1.10,2013-02-09 01:14:00,
2013-02-08 20:29:00,49.9,37.0,30.00,West,278,0.0,3.0,61,0.00,,,0.00,weatherlink.com 1.10,2013-02-09 01:29:00,
2013-02-08 20:44:00,48.7,36.0,30.00,WSW,250,0.0,3.0,62,0.00,,,0.00,weatherlink.com 1.10,2013-02-09 01:44:00,
2013-02-08 20:59:00,49.4,35.0,30.01,WNW,288,0.0,4.0,57,0.00,,,0.00,weatherlink.com 1.10,2013-02-09 01:59:00,
2013-02-08 21:14:00,48.8,34.0,30.01,West,267,2.0,2.0,58,0.00,,,0.00,weatherlink.com 1.10,2013-02-09 02:14:00,
2013-02-08 21:29:00,47.6,34.0,30.03,West,279,0.0,3.0,60,0.00,,,0.00,weatherlink.com 1.10,2013-02-09 02:29:00,
2013-02-08 21:44:00,47.3,33.0,30.04,WSW,251,1.0,8.0,58,0.00,,,0.00,weatherlink.com 1.10,2013-02-09 02:44:00,
2013-02-08 22:00:00,47.4,33.0,30.05,West,275,2.0,7.0,57,0.00,,,0.00,weatherlink.com 1.10,2013-02-09 03:00:00,
2013-02-08 22:15:00,46.9,33.0,30.06,SSE,157,2.0,9.0,59,0.00,,,0.00,weatherlink.com 1.10,2013-02-09 03:15:00,
2013-02-08 22:30:00,46.4,33.0,30.07,SW,217,1.0,8.0,59,0.00,,,0.00,weatherlink.com 1.10,2013-02-09 03:30:00,
2013-02-08 22:45:00,45.9,33.0,30.08,SSW,211,2.0,7.0,60,0.00,,,0.00,weatherlink.com 1.10,2013-02-09 03:45:00,
2013-02-08 23:00:00,45.0,32.0,30.08,WSW,246,0.0,4.0,61,0.00,,,0.00,weatherlink.com 1.10,2013-02-09 04:00:00,
2013-02-08 23:15:00,44.1,32.0,30.08,WNW,296,0.0,4.0,63,0.00,,,0.00,weatherlink.com 1.10,2013-02-09 04:15:00,
2013-02-08 23:30:00,43.5,32.0,30.09,WSW,246,2.0,6.0,63,0.00,,,0.00,weatherlink.com 1.10,2013-02-09 04:30:00,
2013-02-08 23:45:00,43.3,30.0,30.09,WSW,242,3.0,7.0,61,0.00,,,0.00,weatherlink.com 1.10,2013-02-09 04:45:00,